Kalumburu Airport


Codes: YKAL/UBU
Name: Kalumburu Airport
City:
Country: Australia
Elevation: 29 ft.

Photos at Kalumburu Airport


   Photos courtesy of SpottingLog. You can add your own sightings and photos by signing up for a free trial today.



No photos found.

Weather at Kalumburu Airport


Time (UTC)DescriptionTempratureWindCloud coverageVisibilityPressureHumidity
15-Apr-2024 18:00Broken Clouds25°C4 mph, S75%10000m1012hPa63%
15-Apr-2024 21:00Broken Clouds25°C7 mph, SE54%10000m1012hPa62%
16-Apr-2024 00:00Scattered Clouds29°C13 mph, SE36%10000m1013hPa45%
16-Apr-2024 03:00Overcast Clouds35°C16 mph, E86%10000m1012hPa31%
16-Apr-2024 06:00Broken Clouds36°C16 mph, E83%10000m1009hPa27%
16-Apr-2024 09:00Few Clouds32°C11 mph, E19%10000m1010hPa39%
16-Apr-2024 12:00Scattered Clouds26°C7 mph, E25%10000m1013hPa48%
16-Apr-2024 15:00Broken Clouds26°C7 mph, S83%10000m1012hPa50%
16-Apr-2024 18:00Broken Clouds25°C7 mph, S83%10000m1011hPa46%
16-Apr-2024 21:00Scattered Clouds26°C11 mph, SE50%10000m1011hPa41%
17-Apr-2024 00:00Scattered Clouds31°C16 mph, SE48%10000m1012hPa33%
17-Apr-2024 03:00Clear Sky36°C20 mph, SE9%10000m1010hPa26%
17-Apr-2024 06:00Scattered Clouds36°C16 mph, SE45%10000m1008hPa26%
17-Apr-2024 09:00Scattered Clouds32°C9 mph, E45%10000m1009hPa36%
17-Apr-2024 12:00Scattered Clouds27°C7 mph, SE40%10000m1011hPa50%
17-Apr-2024 15:00Overcast Clouds26°C7 mph, S100%10000m1010hPa51%
17-Apr-2024 18:00Broken Clouds26°C7 mph, SE81%10000m1009hPa46%
17-Apr-2024 21:00Broken Clouds27°C4 mph, SE69%10000m1010hPa43%
18-Apr-2024 00:00Broken Clouds31°C13 mph, SE66%10000m1012hPa38%
18-Apr-2024 03:00Scattered Clouds36°C18 mph, E35%10000m1009hPa38%
18-Apr-2024 06:00Light Rain33°C16 mph, E64%10000m1008hPa47%
18-Apr-2024 09:00Light Rain31°C9 mph, SE100%10000m1008hPa55%
18-Apr-2024 12:00Light Rain27°C4 mph, E97%10000m1011hPa73%
18-Apr-2024 15:00Overcast Clouds27°C4 mph, SE100%10000m1010hPa74%
18-Apr-2024 18:00Light Rain26°C4 mph, SE96%10000m1009hPa75%
18-Apr-2024 21:00Overcast Clouds25°C4 mph, SE100%10000m1010hPa80%
19-Apr-2024 00:00Overcast Clouds31°C11 mph, SE86%10000m1011hPa58%
19-Apr-2024 03:00Overcast Clouds34°C16 mph, E85%10000m1010hPa41%
19-Apr-2024 06:00Overcast Clouds34°C13 mph, E92%10000m1007hPa40%
19-Apr-2024 09:00Overcast Clouds32°C13 mph, E100%10000m1009hPa48%
19-Apr-2024 12:00Overcast Clouds28°C4 mph, E100%10000m1011hPa63%
19-Apr-2024 15:00Overcast Clouds27°C4 mph, SE100%10000m1011hPa64%
19-Apr-2024 18:00Overcast Clouds28°C13 mph, SE100%10000m1010hPa39%
19-Apr-2024 21:00Overcast Clouds28°C16 mph, SE86%10000m1011hPa35%
20-Apr-2024 00:00Overcast Clouds29°C18 mph, SE94%10000m1013hPa34%
20-Apr-2024 03:00Few Clouds33°C20 mph, E20%10000m1012hPa25%
20-Apr-2024 06:00Scattered Clouds34°C16 mph, E42%10000m1009hPa24%
20-Apr-2024 09:00Scattered Clouds30°C11 mph, SE49%10000m1010hPa31%
20-Apr-2024 12:00Scattered Clouds25°C4 mph, SE36%10000m1013hPa40%
20-Apr-2024 15:00Scattered Clouds23°C7 mph, SE41%10000m1012hPa38%